createdAt,value
2022-08-05T11:01:54.536Z,176.00
2022-08-05T11:03:36.044Z,172.00
2022-08-05T11:05:12.340Z,161.25
2022-08-05T11:07:01.739Z,167.50
2022-08-05T11:08:37.876Z,171.00
2022-08-05T11:10:27.138Z,146.50
2022-08-05T11:11:59.835Z,140.00
2022-08-05T11:13:40.746Z,152.25
2022-08-05T11:16:00.379Z,140.50
2022-08-05T11:18:09.548Z,145.50
2022-08-05T11:20:10.110Z,140.25
2022-08-05T11:21:49.449Z,133.50
2022-08-05T11:24:05.570Z,126.40
2022-08-05T11:26:04.487Z,117.40
2022-08-05T11:27:51.000Z,120.40
2022-08-05T11:29:41.024Z,106.80
2022-08-05T11:31:12.802Z,103.50
2022-08-05T11:33:43.765Z,98.25
2022-08-05T11:36:07.719Z,92.50
2022-08-05T11:38:28.304Z,86.50
2022-08-05T11:39:48.169Z,88.75
2022-08-05T11:41:54.708Z,77.00
2022-08-05T11:43:21.591Z,75.50
2022-08-05T11:45:23.405Z,81.25
2022-08-05T11:47:11.777Z,74.75
2022-08-05T11:48:47.927Z,67.75
2022-08-05T11:50:25.232Z,65.75
2022-08-05T11:51:57.718Z,62.40
2022-08-05T11:53:33.755Z,54.80
2022-08-05T11:55:12.979Z,53.40
2022-08-05T11:56:50.510Z,60.60
2022-08-05T11:58:40.295Z,53.20
2022-08-05T12:00:37.831Z,48.80
2022-08-05T12:02:24.081Z,46.80
2022-08-05T12:04:02.250Z,52.40
2022-08-05T12:05:39.683Z,46.40
2022-08-05T12:07:16.260Z,50.40
2022-08-05T12:08:58.741Z,47.20
2022-08-05T12:10:43.690Z,48.40
2022-08-05T12:12:24.139Z,47.60
2022-08-05T12:14:04.124Z,45.40
2022-08-05T12:15:38.769Z,45.80
2022-08-05T12:18:00.647Z,45.20
2022-08-05T12:19:08.352Z,42.40
2022-08-05T12:20:41.344Z,44.20
2022-08-05T12:22:14.730Z,39.20
2022-08-05T12:23:57.875Z,40.60
2022-08-05T12:25:32.057Z,41.40
2022-08-05T12:27:09.777Z,39.80
2022-08-05T12:28:54.743Z,41.00
2022-08-05T12:30:32.093Z,40.40
2022-08-05T12:32:05.160Z,35.80
2022-08-05T12:33:39.500Z,37.00
2022-08-05T12:35:21.725Z,38.40
2022-08-05T12:36:54.867Z,36.20
2022-08-05T12:38:31.349Z,36.00
2022-08-05T12:40:10.488Z,31.20
2022-08-05T12:41:43.637Z,33.40
2022-08-05T12:43:21.137Z,35.60
2022-08-05T12:44:53.089Z,36.40
2022-08-05T12:46:28.877Z,35.00
2022-08-05T12:48:26.959Z,35.40
2022-08-05T12:50:04.037Z,35.80
2022-08-05T12:52:12.356Z,38.20
2022-08-05T12:53:47.358Z,33.20
2022-08-05T12:55:32.970Z,35.80
2022-08-05T12:57:09.708Z,35.80
2022-08-05T12:58:53.794Z,36.40
2022-08-05T13:02:02.359Z,35.80
2022-08-05T13:02:27.352Z,32.60
2022-08-05T13:04:03.700Z,33.00
2022-08-05T13:05:39.435Z,35.20
2022-08-05T13:07:41.391Z,31.40
2022-08-05T13:09:12.635Z,32.60
2022-08-05T13:10:50.190Z,32.80
2022-08-05T13:12:23.601Z,32.80
2022-08-05T13:14:06.342Z,30.20
2022-08-05T13:15:50.358Z,30.40
2022-08-05T13:17:31.435Z,30.80
2022-08-05T13:19:03.818Z,32.60
2022-08-05T13:20:35.955Z,30.40
2022-08-05T13:22:12.285Z,29.80
2022-08-05T13:23:50.854Z,31.00
2022-08-05T13:25:52.685Z,30.60
2022-08-05T13:27:35.522Z,29.40
2022-08-05T13:29:10.507Z,28.60
2022-08-05T13:30:53.306Z,25.80
2022-08-05T13:32:32.984Z,30.20
2022-08-05T13:34:22.897Z,25.80
2022-08-05T13:35:57.486Z,27.80
2022-08-05T13:37:34.874Z,22.40
2022-08-05T13:39:08.534Z,25.60
2022-08-05T13:40:56.686Z,25.40
2022-08-05T13:42:28.563Z,25.00
2022-08-05T13:44:00.666Z,22.80
2022-08-05T13:45:38.544Z,20.60
2022-08-05T13:47:35.143Z,25.80
2022-08-05T13:49:10.146Z,26.20
2022-08-05T13:50:43.335Z,24.20
2022-08-05T13:52:29.443Z,22.80
2022-08-05T13:54:01.703Z,8.20
2022-08-05T13:55:41.976Z,24.40
2022-08-05T13:57:21.268Z,23.40
2022-08-05T13:58:53.923Z,19.80
2022-08-05T14:00:27.097Z,19.60
2022-08-05T14:02:00.511Z,22.60
2022-08-05T14:03:32.758Z,27.80
2022-08-05T14:05:11.971Z,26.60
2022-08-05T14:06:47.546Z,23.80
2022-08-05T14:08:21.335Z,24.20
2022-08-05T14:09:59.555Z,24.20
2022-08-05T14:11:33.843Z,21.00
2022-08-05T14:13:28.789Z,22.00
2022-08-05T14:16:03.996Z,20.60
2022-08-05T14:16:57.539Z,24.40
2022-08-05T14:18:30.491Z,24.60
2022-08-05T14:20:07.602Z,17.80
2022-08-05T14:22:08.935Z,23.00
2022-08-05T14:23:36.661Z,22.00
2022-08-05T14:25:19.211Z,26.60
2022-08-05T14:27:15.758Z,23.60
2022-08-05T14:28:51.834Z,20.20
2022-08-05T14:30:26.716Z,23.60
2022-08-05T14:32:12.431Z,21.60
2022-08-05T14:33:59.529Z,17.60
2022-08-05T14:35:36.325Z,23.00
2022-08-05T14:37:22.550Z,19.40
2022-08-05T14:38:54.816Z,20.60
2022-08-05T14:40:26.585Z,27.20
2022-08-05T14:42:19.540Z,24.00
2022-08-05T14:44:00.211Z,23.60
2022-08-05T14:45:37.524Z,29.40
2022-08-05T14:47:09.287Z,37.40
2022-08-05T14:48:42.459Z,35.40
2022-08-05T14:50:19.023Z,40.80
2022-08-05T14:51:51.299Z,52.20
2022-08-05T14:53:23.200Z,43.40
2022-08-05T14:55:01.987Z,54.20
2022-08-05T14:56:35.286Z,45.40
2022-08-05T14:58:12.153Z,53.00
2022-08-05T14:59:46.030Z,46.80
2022-08-05T15:01:47.140Z,43.80
2022-08-05T15:03:13.567Z,42.60
2022-08-05T15:04:48.023Z,41.00
2022-08-05T15:06:21.743Z,42.40
2022-08-05T15:08:06.114Z,40.00
2022-08-05T15:09:52.259Z,39.40
2022-08-05T15:11:51.372Z,36.60
2022-08-05T15:13:18.318Z,36.00
2022-08-05T15:14:50.741Z,32.20
2022-08-05T15:16:24.946Z,33.40
2022-08-05T15:17:56.853Z,34.80
2022-08-05T15:19:28.604Z,33.20
2022-08-05T15:21:07.699Z,33.80
2022-08-05T15:22:39.950Z,33.60
2022-08-05T15:24:13.902Z,28.20
2022-08-05T15:25:53.327Z,29.00
2022-08-05T15:27:32.101Z,30.80
2022-08-05T15:29:07.861Z,30.20
2022-08-05T15:30:39.707Z,26.60
2022-08-05T15:32:12.960Z,29.80
2022-08-05T15:34:04.706Z,25.80
2022-08-05T15:35:36.586Z,23.80
2022-08-05T15:38:08.760Z,28.40
2022-08-05T15:40:59.811Z,22.80
2022-08-05T15:41:22.490Z,28.60
2022-08-05T15:43:01.353Z,20.60
2022-08-05T15:44:44.883Z,23.60
2022-08-05T15:46:16.905Z,27.60
2022-08-05T15:47:50.240Z,22.60
2022-08-05T15:49:40.928Z,23.80
2022-08-05T15:51:22.715Z,27.00
2022-08-05T15:53:15.073Z,26.20
2022-08-05T15:54:46.904Z,22.00
2022-08-05T15:56:21.490Z,19.80
2022-08-05T15:57:53.275Z,20.80
2022-08-05T15:59:25.020Z,18.40
2022-08-05T16:01:15.703Z,23.40
2022-08-05T16:02:49.609Z,22.60
2022-08-05T16:04:25.174Z,21.00
2022-08-05T16:05:57.627Z,25.00
2022-08-05T16:07:29.770Z,18.80
2022-08-05T16:09:01.684Z,21.60
2022-08-05T16:10:33.691Z,24.80
2022-08-05T16:12:05.875Z,22.20
2022-08-05T16:13:38.169Z,22.00
2022-08-05T16:15:10.437Z,22.80
2022-08-05T16:16:50.603Z,19.20
2022-08-05T16:18:22.367Z,23.40
2022-08-05T16:20:11.213Z,23.20
2022-08-05T16:21:58.422Z,19.80
2022-08-05T16:23:32.857Z,23.40
2022-08-05T16:25:22.997Z,25.60
2022-08-05T16:27:04.491Z,19.00
2022-08-05T16:28:41.413Z,22.80
2022-08-05T16:30:25.514Z,23.40
2022-08-05T16:31:58.802Z,23.80
2022-08-05T16:33:32.280Z,23.40
2022-08-05T16:35:13.629Z,20.20
2022-08-05T16:36:47.842Z,22.00
2022-08-05T16:38:25.596Z,20.80
2022-08-05T16:40:06.476Z,22.80
2022-08-05T16:42:15.253Z,22.20
2022-08-05T16:43:34.591Z,17.40
2022-08-05T16:46:03.791Z,19.80
2022-08-05T16:46:59.300Z,20.60
2022-08-05T16:48:33.382Z,22.60
2022-08-05T16:50:11.206Z,23.80
2022-08-05T16:51:50.283Z,18.40
2022-08-05T16:53:32.485Z,22.60
2022-08-05T16:55:15.608Z,16.20
2022-08-05T16:56:51.990Z,23.20
2022-08-05T16:58:24.201Z,21.80
2022-08-05T17:00:04.401Z,16.80
2022-08-05T17:01:54.560Z,19.00
2022-08-05T17:03:27.909Z,14.20
2022-08-05T17:04:59.730Z,20.40
2022-08-05T17:06:31.925Z,22.20
2022-08-05T17:08:03.807Z,22.60
2022-08-05T17:09:57.578Z,22.20
2022-08-05T17:11:27.764Z,22.20
2022-08-05T17:12:59.489Z,21.00
2022-08-05T17:14:36.834Z,24.20
2022-08-05T17:16:29.701Z,22.60
2022-08-05T17:18:01.661Z,20.20
2022-08-05T17:19:33.856Z,20.20
2022-08-05T17:21:06.008Z,18.80
2022-08-05T17:22:37.840Z,20.20
2022-08-05T17:24:19.348Z,16.20
2022-08-05T17:26:02.247Z,19.40
2022-08-05T17:27:34.936Z,20.60
2022-08-05T17:29:10.093Z,20.00
2022-08-05T17:30:42.479Z,20.20
2022-08-05T17:32:17.597Z,20.60
2022-08-05T17:33:51.435Z,20.80
2022-08-05T17:35:23.245Z,20.20
2022-08-05T17:36:55.102Z,16.60
2022-08-05T17:38:27.331Z,23.20
2022-08-05T17:39:59.999Z,17.40
2022-08-05T17:42:28.494Z,19.20
2022-08-05T17:43:46.794Z,21.40
2022-08-05T17:45:20.421Z,22.40
2022-08-05T17:46:53.246Z,22.40
2022-08-05T17:48:27.496Z,18.80
2022-08-05T17:50:03.481Z,22.60
2022-08-05T17:51:40.326Z,18.40
2022-08-05T17:53:12.543Z,20.80
2022-08-05T17:54:46.474Z,22.80
2022-08-05T17:56:18.339Z,20.40
2022-08-05T17:57:50.773Z,20.80
2022-08-05T17:59:22.785Z,20.20
2022-08-05T18:00:55.422Z,22.20
2022-08-05T18:02:28.837Z,24.00
2022-08-05T18:04:04.760Z,20.20
2022-08-05T18:05:39.134Z,20.00
2022-08-05T18:07:12.658Z,24.60
2022-08-05T18:08:52.543Z,17.20
2022-08-05T18:10:24.579Z,19.20
2022-08-05T18:11:57.764Z,24.00
2022-08-05T18:13:36.700Z,21.40
2022-08-05T18:15:17.065Z,17.80
2022-08-05T18:16:52.083Z,22.00
2022-08-05T18:18:26.931Z,20.80
2022-08-05T18:20:00.165Z,19.40
2022-08-05T18:22:06.943Z,21.20
2022-08-05T18:23:25.530Z,18.20
2022-08-05T18:25:06.026Z,23.60
2022-08-05T18:26:39.999Z,20.80
2022-08-05T18:28:16.489Z,16.80
2022-08-05T18:29:54.167Z,20.80
2022-08-05T18:31:33.090Z,22.40
2022-08-05T18:33:06.431Z,22.00
2022-08-05T18:34:41.103Z,21.80
2022-08-05T18:36:15.735Z,20.00
2022-08-05T18:37:47.590Z,17.80
2022-08-05T18:39:41.737Z,22.60
2022-08-05T18:41:56.410Z,16.40
2022-08-05T18:43:04.407Z,19.20
2022-08-05T18:44:51.450Z,19.20
2022-08-05T18:46:28.988Z,20.80
2022-08-05T18:48:01.063Z,19.80
2022-08-05T18:49:57.254Z,15.60
2022-08-05T18:51:49.758Z,19.00
2022-08-05T18:53:45.681Z,18.20
2022-08-05T18:55:17.795Z,20.40
2022-08-05T18:56:51.036Z,23.00
2022-08-05T18:58:28.709Z,13.20
2022-08-05T19:00:13.302Z,16.80
2022-08-05T19:01:57.200Z,22.40
2022-08-05T19:03:53.330Z,22.80
2022-08-05T19:06:13.168Z,21.40
2022-08-05T19:07:15.567Z,24.40
2022-08-05T19:08:47.469Z,23.40
2022-08-05T19:10:27.903Z,23.20
2022-08-05T19:12:01.616Z,24.60
2022-08-05T19:13:36.896Z,22.60
2022-08-05T19:15:56.614Z,24.20
2022-08-05T19:17:03.758Z,20.40
2022-08-05T19:18:39.725Z,20.40
2022-08-05T19:20:12.977Z,19.40
2022-08-05T19:21:48.322Z,24.60
2022-08-05T19:24:07.124Z,26.00
2022-08-05T19:25:22.233Z,23.60
2022-08-05T19:27:04.251Z,25.80
2022-08-05T19:28:41.639Z,23.00
2022-08-05T19:30:14.531Z,23.40
2022-08-05T19:31:51.134Z,24.80
2022-08-05T19:33:35.482Z,26.80
2022-08-05T19:35:08.753Z,23.60
2022-08-05T19:36:40.646Z,22.00
2022-08-05T19:38:14.464Z,25.00
2022-08-05T19:39:51.079Z,27.80
2022-08-05T19:42:05.661Z,25.20
2022-08-05T19:44:04.251Z,27.20
2022-08-05T19:45:14.465Z,30.00
2022-08-05T19:46:46.639Z,28.40
2022-08-05T19:48:18.479Z,31.80
2022-08-05T19:49:57.373Z,31.20
2022-08-05T19:52:04.894Z,34.40
2022-08-05T19:54:04.453Z,33.40
2022-08-05T19:56:14.733Z,31.20
2022-08-05T19:57:09.300Z,35.40
2022-08-05T19:58:53.900Z,32.60
2022-08-05T20:00:27.282Z,36.20
2022-08-05T20:02:01.545Z,37.40
2022-08-05T20:03:40.695Z,38.00
2022-08-05T20:05:16.553Z,39.00
2022-08-05T20:06:57.653Z,39.80
2022-08-05T20:08:30.641Z,35.60
2022-08-05T20:10:08.288Z,42.60
2022-08-05T20:11:48.075Z,41.00
2022-08-05T20:13:54.463Z,42.20
2022-08-05T20:15:12.394Z,43.80
2022-08-05T20:16:48.526Z,44.60
2022-08-05T20:18:33.977Z,45.80
2022-08-05T20:20:09.629Z,46.20
2022-08-05T20:21:43.446Z,39.80
2022-08-05T20:23:18.036Z,46.20
2022-08-05T20:24:51.574Z,47.40
2022-08-05T20:26:26.904Z,51.20
2022-08-05T20:27:58.772Z,49.20
2022-08-05T20:29:31.243Z,52.20
2022-08-05T20:31:03.323Z,51.00
2022-08-05T20:32:36.995Z,46.60
2022-08-05T20:34:17.565Z,52.20
2022-08-05T20:35:52.597Z,51.80
2022-08-05T20:38:06.430Z,50.80
2022-08-05T20:39:18.175Z,54.20
2022-08-05T20:40:51.104Z,53.20
2022-08-05T20:42:23.108Z,60.20
2022-08-05T20:44:16.900Z,54.20
2022-08-05T20:45:56.964Z,53.20
2022-08-05T20:47:31.693Z,55.00
2022-08-05T20:49:06.308Z,60.50
2022-08-05T20:50:42.582Z,59.60
2022-08-05T20:52:17.625Z,68.20
2022-08-05T20:53:56.199Z,64.50
2022-08-05T20:55:56.130Z,66.00
2022-08-05T20:57:24.692Z,66.25
2022-08-05T20:59:19.352Z,62.50
2022-08-05T21:00:59.261Z,71.75
2022-08-05T21:02:39.445Z,77.50
2022-08-05T21:04:15.881Z,71.25
2022-08-05T21:05:54.638Z,70.25
2022-08-05T21:07:45.646Z,83.50
2022-08-05T21:09:21.945Z,83.25
2022-08-05T21:10:53.963Z,84.25
2022-08-05T21:12:26.841Z,85.00
2022-08-05T21:14:01.578Z,84.00
2022-08-05T21:15:33.709Z,91.00
2022-08-05T21:17:08.820Z,83.00
2022-08-05T21:18:45.136Z,89.25
2022-08-05T21:20:33.192Z,85.50
2022-08-05T21:22:05.412Z,87.25
2022-08-05T21:23:41.500Z,95.75
2022-08-05T21:25:13.520Z,94.25
2022-08-05T21:26:58.008Z,80.75
2022-08-05T21:28:30.763Z,87.50
2022-08-05T21:30:02.902Z,97.00
2022-08-05T21:31:41.419Z,105.75
2022-08-05T21:33:22.489Z,96.50
2022-08-05T21:35:16.701Z,98.75
2022-08-05T21:36:50.519Z,96.50
2022-08-05T21:38:24.489Z,101.75
2022-08-05T21:39:56.649Z,96.50
2022-08-05T21:41:32.981Z,94.25
2022-08-05T21:43:06.343Z,112.50
2022-08-05T21:44:40.216Z,105.50
2022-08-05T21:46:14.469Z,117.25
2022-08-05T21:47:55.717Z,116.00
2022-08-05T21:49:48.050Z,105.40
2022-08-05T21:51:25.336Z,114.75
2022-08-05T21:53:17.567Z,111.00
2022-08-05T21:54:54.932Z,121.20
2022-08-05T21:56:29.086Z,121.60
2022-08-05T21:58:01.560Z,117.60
2022-08-05T21:59:54.410Z,118.80
2022-08-05T22:01:27.720Z,110.80
2022-08-05T22:03:02.413Z,115.80
2022-08-05T22:04:35.581Z,119.50
2022-08-05T22:06:08.245Z,121.00
2022-08-05T22:07:59.505Z,130.00
2022-08-05T22:09:46.068Z,117.25
2022-08-05T22:11:34.370Z,120.80
2022-08-05T22:13:09.199Z,136.00
2022-08-05T22:14:59.328Z,141.50
2022-08-05T22:16:41.646Z,145.00
2022-08-05T22:18:25.703Z,142.00
2022-08-05T22:20:03.300Z,140.25
2022-08-05T22:21:43.526Z,145.25
2022-08-05T22:24:00.996Z,140.00
2022-08-05T22:26:10.481Z,147.50
2022-08-05T22:28:10.328Z,150.00
2022-08-05T22:29:39.282Z,151.50
2022-08-05T22:31:14.041Z,147.50
2022-08-05T22:32:47.234Z,157.00
2022-08-05T22:34:28.377Z,162.00
